sensor_id;sensor_type;location;lat;lon;timestamp;P1;durP1;ratioP1;P2;durP2;ratioP2
36185;SDS011;22228;53.222;7.446;2022-07-30T00:00:57;4.30;;;3.93;;
36185;SDS011;22228;53.222;7.446;2022-07-30T00:03:19;4.80;;;4.40;;
36185;SDS011;22228;53.222;7.446;2022-07-30T00:05:42;4.03;;;3.73;;
36185;SDS011;22228;53.222;7.446;2022-07-30T00:08:04;4.23;;;3.90;;
36185;SDS011;22228;53.222;7.446;2022-07-30T00:10:26;5.23;;;3.70;;
36185;SDS011;22228;53.222;7.446;2022-07-30T00:12:48;4.23;;;3.87;;
36185;SDS011;22228;53.222;7.446;2022-07-30T00:15:10;4.00;;;3.70;;
36185;SDS011;22228;53.222;7.446;2022-07-30T00:17:32;7.87;;;4.20;;
36185;SDS011;22228;53.222;7.446;2022-07-30T00:19:54;4.57;;;3.87;;
36185;SDS011;22228;53.222;7.446;2022-07-30T00:22:17;4.63;;;3.37;;
36185;SDS011;22228;53.222;7.446;2022-07-30T00:24:40;4.37;;;4.03;;
36185;SDS011;22228;53.222;7.446;2022-07-30T00:27:02;4.20;;;3.90;;
36185;SDS011;22228;53.222;7.446;2022-07-30T00:29:24;3.63;;;3.43;;
36185;SDS011;22228;53.222;7.446;2022-07-30T00:31:48;5.13;;;4.23;;
36185;SDS011;22228;53.222;7.446;2022-07-30T00:34:10;3.73;;;3.43;;
36185;SDS011;22228;53.222;7.446;2022-07-30T00:36:32;5.30;;;4.30;;
36185;SDS011;22228;53.222;7.446;2022-07-30T00:38:58;4.70;;;4.30;;
36185;SDS011;22228;53.222;7.446;2022-07-30T00:41:21;4.17;;;3.87;;
36185;SDS011;22228;53.222;7.446;2022-07-30T00:43:43;4.83;;;4.40;;
36185;SDS011;22228;53.222;7.446;2022-07-30T00:46:05;4.80;;;4.40;;
36185;SDS011;22228;53.222;7.446;2022-07-30T00:48:27;4.60;;;4.30;;
36185;SDS011;22228;53.222;7.446;2022-07-30T00:50:49;5.20;;;4.70;;
36185;SDS011;22228;53.222;7.446;2022-07-30T00:53:11;4.77;;;4.37;;
36185;SDS011;22228;53.222;7.446;2022-07-30T00:55:35;5.23;;;4.83;;
36185;SDS011;22228;53.222;7.446;2022-07-30T00:57:57;4.47;;;4.17;;
36185;SDS011;22228;53.222;7.446;2022-07-30T01:00:19;5.43;;;4.93;;
36185;SDS011;22228;53.222;7.446;2022-07-30T01:02:41;5.90;;;4.93;;
36185;SDS011;22228;53.222;7.446;2022-07-30T01:05:04;5.20;;;4.80;;
36185;SDS011;22228;53.222;7.446;2022-07-30T01:07:27;4.73;;;4.33;;
36185;SDS011;22228;53.222;7.446;2022-07-30T01:09:49;4.80;;;4.40;;
36185;SDS011;22228;53.222;7.446;2022-07-30T01:12:12;4.70;;;4.37;;
36185;SDS011;22228;53.222;7.446;2022-07-30T01:14:39;4.83;;;4.50;;
36185;SDS011;22228;53.222;7.446;2022-07-30T01:17:02;5.87;;;5.27;;
36185;SDS011;22228;53.222;7.446;2022-07-30T01:19:25;5.93;;;5.43;;
36185;SDS011;22228;53.222;7.446;2022-07-30T01:22:09;5.07;;;4.67;;
36185;SDS011;22228;53.222;7.446;2022-07-30T01:24:37;5.40;;;5.03;;
36185;SDS011;22228;53.222;7.446;2022-07-30T01:27:04;6.33;;;5.43;;
36185;SDS011;22228;53.222;7.446;2022-07-30T01:29:27;5.13;;;4.80;;
36185;SDS011;22228;53.222;7.446;2022-07-30T01:31:51;5.00;;;4.53;;
36185;SDS011;22228;53.222;7.446;2022-07-30T01:34:19;6.67;;;5.17;;
36185;SDS011;22228;53.222;7.446;2022-07-30T01:36:44;5.40;;;5.00;;
36185;SDS011;22228;53.222;7.446;2022-07-30T01:39:07;7.07;;;4.70;;
36185;SDS011;22228;53.222;7.446;2022-07-30T01:41:30;5.50;;;5.07;;
36185;SDS011;22228;53.222;7.446;2022-07-30T01:43:54;5.43;;;5.00;;
36185;SDS011;22228;53.222;7.446;2022-07-30T01:46:16;5.17;;;4.87;;
36185;SDS011;22228;53.222;7.446;2022-07-30T01:48:42;5.97;;;5.37;;
36185;SDS011;22228;53.222;7.446;2022-07-30T01:51:06;5.57;;;4.47;;
36185;SDS011;22228;53.222;7.446;2022-07-30T01:53:30;5.53;;;5.03;;
36185;SDS011;22228;53.222;7.446;2022-07-30T01:55:55;7.47;;;5.40;;
36185;SDS011;22228;53.222;7.446;2022-07-30T01:58:21;5.10;;;4.60;;
36185;SDS011;22228;53.222;7.446;2022-07-30T02:00:50;5.23;;;4.47;;
36185;SDS011;22228;53.222;7.446;2022-07-30T02:03:16;5.20;;;4.80;;
36185;SDS011;22228;53.222;7.446;2022-07-30T02:05:42;9.03;;;4.57;;
36185;SDS011;22228;53.222;7.446;2022-07-30T02:08:10;5.63;;;5.23;;
36185;SDS011;22228;53.222;7.446;2022-07-30T02:10:41;5.67;;;5.20;;
36185;SDS011;22228;53.222;7.446;2022-07-30T02:13:09;5.80;;;5.30;;
36185;SDS011;22228;53.222;7.446;2022-07-30T02:15:35;6.03;;;5.20;;
36185;SDS011;22228;53.222;7.446;2022-07-30T02:18:07;6.47;;;5.93;;
36185;SDS011;22228;53.222;7.446;2022-07-30T02:20:33;6.43;;;5.93;;
36185;SDS011;22228;53.222;7.446;2022-07-30T02:22:59;5.97;;;5.43;;
36185;SDS011;22228;53.222;7.446;2022-07-30T02:25:24;6.33;;;5.80;;
36185;SDS011;22228;53.222;7.446;2022-07-30T02:27:49;6.53;;;6.00;;
36185;SDS011;22228;53.222;7.446;2022-07-30T02:30:15;6.33;;;5.90;;
36185;SDS011;22228;53.222;7.446;2022-07-30T02:32:39;5.47;;;5.07;;
36185;SDS011;22228;53.222;7.446;2022-07-30T02:35:08;7.63;;;6.93;;
36185;SDS011;22228;53.222;7.446;2022-07-30T02:37:36;6.80;;;6.03;;
36185;SDS011;22228;53.222;7.446;2022-07-30T02:40:04;5.80;;;5.40;;
36185;SDS011;22228;53.222;7.446;2022-07-30T02:42:26;6.17;;;5.63;;
36185;SDS011;22228;53.222;7.446;2022-07-30T02:44:51;5.27;;;4.97;;
36185;SDS011;22228;53.222;7.446;2022-07-30T02:47:15;5.33;;;4.93;;
36185;SDS011;22228;53.222;7.446;2022-07-30T02:49:54;6.67;;;5.93;;
36185;SDS011;22228;53.222;7.446;2022-07-30T02:52:18;6.50;;;6.00;;
36185;SDS011;22228;53.222;7.446;2022-07-30T02:54:43;7.37;;;6.77;;
36185;SDS011;22228;53.222;7.446;2022-07-30T02:57:05;6.97;;;6.33;;
36185;SDS011;22228;53.222;7.446;2022-07-30T02:59:29;6.73;;;6.17;;
36185;SDS011;22228;53.222;7.446;2022-07-30T03:01:54;6.80;;;6.27;;
36185;SDS011;22228;53.222;7.446;2022-07-30T03:04:18;7.27;;;6.57;;
36185;SDS011;22228;53.222;7.446;2022-07-30T03:06:41;6.77;;;6.23;;
36185;SDS011;22228;53.222;7.446;2022-07-30T03:09:07;7.90;;;7.20;;
36185;SDS011;22228;53.222;7.446;2022-07-30T03:11:34;7.43;;;6.73;;
36185;SDS011;22228;53.222;7.446;2022-07-30T03:13:57;6.70;;;6.10;;
36185;SDS011;22228;53.222;7.446;2022-07-30T03:16:19;6.93;;;6.53;;
36185;SDS011;22228;53.222;7.446;2022-07-30T03:18:44;7.47;;;6.87;;
36185;SDS011;22228;53.222;7.446;2022-07-30T03:21:08;7.10;;;6.40;;
36185;SDS011;22228;53.222;7.446;2022-07-30T03:23:32;7.03;;;6.53;;
36185;SDS011;22228;53.222;7.446;2022-07-30T03:25:58;7.80;;;7.20;;
36185;SDS011;22228;53.222;7.446;2022-07-30T03:28:22;7.53;;;6.73;;
36185;SDS011;22228;53.222;7.446;2022-07-30T03:30:47;7.73;;;7.03;;
36185;SDS011;22228;53.222;7.446;2022-07-30T03:33:11;7.63;;;6.93;;
36185;SDS011;22228;53.222;7.446;2022-07-30T03:35:35;6.73;;;6.17;;
36185;SDS011;22228;53.222;7.446;2022-07-30T03:37:59;7.10;;;6.43;;
36185;SDS011;22228;53.222;7.446;2022-07-30T03:40:21;6.97;;;6.47;;
36185;SDS011;22228;53.222;7.446;2022-07-30T03:42:46;7.57;;;6.97;;
36185;SDS011;22228;53.222;7.446;2022-07-30T03:45:13;7.33;;;6.70;;
36185;SDS011;22228;53.222;7.446;2022-07-30T03:47:37;7.10;;;6.50;;
36185;SDS011;22228;53.222;7.446;2022-07-30T03:50:04;6.97;;;6.30;;
36185;SDS011;22228;53.222;7.446;2022-07-30T03:52:29;6.70;;;6.13;;
36185;SDS011;22228;53.222;7.446;2022-07-30T03:54:54;6.83;;;6.27;;
36185;SDS011;22228;53.222;7.446;2022-07-30T03:57:35;7.23;;;6.63;;
36185;SDS011;22228;53.222;7.446;2022-07-30T03:59:59;9.70;;;7.33;;
36185;SDS011;22228;53.222;7.446;2022-07-30T04:02:39;7.17;;;6.57;;
36185;SDS011;22228;53.222;7.446;2022-07-30T04:05:20;7.63;;;6.73;;
36185;SDS011;22228;53.222;7.446;2022-07-30T04:07:44;7.17;;;6.47;;
36185;SDS011;22228;53.222;7.446;2022-07-30T04:10:08;8.00;;;7.20;;
36185;SDS011;22228;53.222;7.446;2022-07-30T04:12:50;10.53;;;7.47;;
36185;SDS011;22228;53.222;7.446;2022-07-30T04:15:14;7.33;;;6.83;;
36185;SDS011;22228;53.222;7.446;2022-07-30T04:17:57;8.20;;;7.40;;
36185;SDS011;22228;53.222;7.446;2022-07-30T04:20:23;7.57;;;6.97;;
36185;SDS011;22228;53.222;7.446;2022-07-30T04:22:50;7.40;;;6.80;;
36185;SDS011;22228;53.222;7.446;2022-07-30T04:25:13;7.37;;;6.80;;
36185;SDS011;22228;53.222;7.446;2022-07-30T04:27:44;8.70;;;7.53;;
36185;SDS011;22228;53.222;7.446;2022-07-30T04:30:24;8.07;;;7.33;;
36185;SDS011;22228;53.222;7.446;2022-07-30T04:32:46;8.30;;;7.70;;
36185;SDS011;22228;53.222;7.446;2022-07-30T04:35:37;8.27;;;7.47;;
36185;SDS011;22228;53.222;7.446;2022-07-30T04:38:30;7.70;;;7.03;;
36185;SDS011;22228;53.222;7.446;2022-07-30T04:40:52;8.00;;;7.30;;
36185;SDS011;22228;53.222;7.446;2022-07-30T04:43:16;8.23;;;7.53;;
36185;SDS011;22228;53.222;7.446;2022-07-30T04:45:41;8.13;;;7.53;;
36185;SDS011;22228;53.222;7.446;2022-07-30T04:48:04;8.90;;;8.03;;
36185;SDS011;22228;53.222;7.446;2022-07-30T04:50:46;10.50;;;9.60;;
36185;SDS011;22228;53.222;7.446;2022-07-30T04:53:13;9.90;;;9.10;;
36185;SDS011;22228;53.222;7.446;2022-07-30T04:55:43;10.10;;;9.10;;
36185;SDS011;22228;53.222;7.446;2022-07-30T04:58:08;8.73;;;8.03;;
36185;SDS011;22228;53.222;7.446;2022-07-30T05:00:32;9.10;;;8.37;;
36185;SDS011;22228;53.222;7.446;2022-07-30T05:03:05;8.30;;;7.70;;
36185;SDS011;22228;53.222;7.446;2022-07-30T05:05:28;10.00;;;9.10;;
36185;SDS011;22228;53.222;7.446;2022-07-30T05:07:52;11.67;;;10.13;;
36185;SDS011;22228;53.222;7.446;2022-07-30T05:10:16;10.07;;;9.07;;
36185;SDS011;22228;53.222;7.446;2022-07-30T05:12:39;8.63;;;8.03;;
36185;SDS011;22228;53.222;7.446;2022-07-30T05:15:00;9.23;;;8.53;;
36185;SDS011;22228;53.222;7.446;2022-07-30T05:17:23;9.77;;;8.83;;
36185;SDS011;22228;53.222;7.446;2022-07-30T05:19:46;9.57;;;8.67;;
36185;SDS011;22228;53.222;7.446;2022-07-30T05:22:09;9.67;;;8.83;;
36185;SDS011;22228;53.222;7.446;2022-07-30T05:24:31;10.67;;;9.60;;
36185;SDS011;22228;53.222;7.446;2022-07-30T05:26:54;10.67;;;9.57;;
36185;SDS011;22228;53.222;7.446;2022-07-30T05:29:19;10.40;;;9.50;;
36185;SDS011;22228;53.222;7.446;2022-07-30T05:31:46;11.70;;;9.53;;
36185;SDS011;22228;53.222;7.446;2022-07-30T05:34:10;10.87;;;9.73;;
36185;SDS011;22228;53.222;7.446;2022-07-30T05:36:38;10.17;;;9.17;;
36185;SDS011;22228;53.222;7.446;2022-07-30T05:39:04;11.73;;;9.50;;
36185;SDS011;22228;53.222;7.446;2022-07-30T05:41:51;9.47;;;8.50;;
36185;SDS011;22228;53.222;7.446;2022-07-30T05:44:18;9.50;;;7.93;;
36185;SDS011;22228;53.222;7.446;2022-07-30T05:46:44;8.63;;;7.73;;
36185;SDS011;22228;53.222;7.446;2022-07-30T05:49:06;7.97;;;7.17;;
36185;SDS011;22228;53.222;7.446;2022-07-30T05:51:28;7.50;;;6.80;;
36185;SDS011;22228;53.222;7.446;2022-07-30T05:53:51;8.03;;;7.33;;
36185;SDS011;22228;53.222;7.446;2022-07-30T05:56:32;8.27;;;7.47;;
36185;SDS011;22228;53.222;7.446;2022-07-30T05:59:02;8.20;;;7.50;;
36185;SDS011;22228;53.222;7.446;2022-07-30T06:01:43;8.73;;;7.93;;
36185;SDS011;22228;53.222;7.446;2022-07-30T06:04:11;8.53;;;7.60;;
36185;SDS011;22228;53.222;7.446;2022-07-30T06:06:37;9.10;;;8.40;;
36185;SDS011;22228;53.222;7.446;2022-07-30T06:09:00;9.77;;;8.83;;
36185;SDS011;22228;53.222;7.446;2022-07-30T06:11:22;9.97;;;9.00;;
36185;SDS011;22228;53.222;7.446;2022-07-30T06:13:44;8.60;;;7.90;;
36185;SDS011;22228;53.222;7.446;2022-07-30T06:16:07;9.53;;;8.70;;
36185;SDS011;22228;53.222;7.446;2022-07-30T06:18:29;10.37;;;9.47;;
36185;SDS011;22228;53.222;7.446;2022-07-30T06:20:54;10.53;;;9.60;;
36185;SDS011;22228;53.222;7.446;2022-07-30T06:23:38;10.87;;;9.77;;
36185;SDS011;22228;53.222;7.446;2022-07-30T06:26:28;10.60;;;9.70;;
36185;SDS011;22228;53.222;7.446;2022-07-30T06:28:50;11.00;;;10.00;;
36185;SDS011;22228;53.222;7.446;2022-07-30T06:31:19;12.40;;;11.10;;
36185;SDS011;22228;53.222;7.446;2022-07-30T06:33:41;13.67;;;10.97;;
36185;SDS011;22228;53.222;7.446;2022-07-30T06:36:04;13.33;;;10.63;;
36185;SDS011;22228;53.222;7.446;2022-07-30T06:38:39;12.00;;;10.90;;
36185;SDS011;22228;53.222;7.446;2022-07-30T06:41:06;12.33;;;10.47;;
36185;SDS011;22228;53.222;7.446;2022-07-30T06:43:43;12.33;;;10.83;;
36185;SDS011;22228;53.222;7.446;2022-07-30T06:46:23;12.57;;;11.37;;
36185;SDS011;22228;53.222;7.446;2022-07-30T06:48:45;14.57;;;13.17;;
36185;SDS011;22228;53.222;7.446;2022-07-30T06:51:08;13.20;;;12.10;;
36185;SDS011;22228;53.222;7.446;2022-07-30T06:53:32;16.53;;;14.80;;
36185;SDS011;22228;53.222;7.446;2022-07-30T06:56:04;16.67;;;14.97;;
36185;SDS011;22228;53.222;7.446;2022-07-30T06:58:36;15.67;;;14.17;;
36185;SDS011;22228;53.222;7.446;2022-07-30T07:01:29;15.30;;;13.73;;
36185;SDS011;22228;53.222;7.446;2022-07-30T07:03:51;18.10;;;16.43;;
36185;SDS011;22228;53.222;7.446;2022-07-30T07:06:12;15.60;;;14.30;;
36185;SDS011;22228;53.222;7.446;2022-07-30T07:08:36;15.27;;;13.97;;
36185;SDS011;22228;53.222;7.446;2022-07-30T07:11:00;16.07;;;14.50;;
36185;SDS011;22228;53.222;7.446;2022-07-30T07:13:26;15.70;;;14.30;;
36185;SDS011;22228;53.222;7.446;2022-07-30T07:15:49;17.40;;;15.70;;
36185;SDS011;22228;53.222;7.446;2022-07-30T07:18:15;17.57;;;15.17;;
36185;SDS011;22228;53.222;7.446;2022-07-30T07:20:44;15.27;;;13.77;;
36185;SDS011;22228;53.222;7.446;2022-07-30T07:23:06;15.80;;;14.40;;
36185;SDS011;22228;53.222;7.446;2022-07-30T07:25:32;16.03;;;13.03;;
36185;SDS011;22228;53.222;7.446;2022-07-30T07:27:54;14.40;;;12.97;;
36185;SDS011;22228;53.222;7.446;2022-07-30T07:30:32;14.27;;;12.97;;
36185;SDS011;22228;53.222;7.446;2022-07-30T07:32:56;15.90;;;14.40;;
36185;SDS011;22228;53.222;7.446;2022-07-30T07:35:20;16.43;;;13.97;;
36185;SDS011;22228;53.222;7.446;2022-07-30T07:37:43;14.97;;;13.67;;
36185;SDS011;22228;53.222;7.446;2022-07-30T07:40:12;13.57;;;12.20;;
36185;SDS011;22228;53.222;7.446;2022-07-30T07:42:35;13.37;;;12.10;;
36185;SDS011;22228;53.222;7.446;2022-07-30T07:44:59;13.27;;;11.47;;
36185;SDS011;22228;53.222;7.446;2022-07-30T07:47:26;12.83;;;11.63;;
36185;SDS011;22228;53.222;7.446;2022-07-30T07:49:59;13.20;;;10.77;;
36185;SDS011;22228;53.222;7.446;2022-07-30T07:52:26;10.13;;;8.80;;
36185;SDS011;22228;53.222;7.446;2022-07-30T07:54:48;11.47;;;9.10;;
36185;SDS011;22228;53.222;7.446;2022-07-30T07:57:11;10.77;;;8.40;;
36185;SDS011;22228;53.222;7.446;2022-07-30T07:59:35;9.97;;;7.73;;
36185;SDS011;22228;53.222;7.446;2022-07-30T08:02:03;9.30;;;7.23;;
36185;SDS011;22228;53.222;7.446;2022-07-30T08:04:49;7.80;;;6.73;;
36185;SDS011;22228;53.222;7.446;2022-07-30T08:07:40;7.40;;;6.37;;
36185;SDS011;22228;53.222;7.446;2022-07-30T08:10:09;7.27;;;4.73;;
36185;SDS011;22228;53.222;7.446;2022-07-30T08:12:53;8.93;;;5.53;;
36185;SDS011;22228;53.222;7.446;2022-07-30T08:15:40;6.80;;;4.87;;
36185;SDS011;22228;53.222;7.446;2022-07-30T08:18:12;4.63;;;4.33;;
36185;SDS011;22228;53.222;7.446;2022-07-30T08:20:40;4.17;;;3.87;;
36185;SDS011;22228;53.222;7.446;2022-07-30T08:23:06;5.67;;;4.97;;
36185;SDS011;22228;53.222;7.446;2022-07-30T08:25:27;7.87;;;5.57;;
36185;SDS011;22228;53.222;7.446;2022-07-30T08:27:50;5.30;;;4.80;;
36185;SDS011;22228;53.222;7.446;2022-07-30T08:30:13;5.83;;;5.23;;
36185;SDS011;22228;53.222;7.446;2022-07-30T08:32:35;5.80;;;5.33;;
36185;SDS011;22228;53.222;7.446;2022-07-30T08:34:57;7.80;;;6.23;;
36185;SDS011;22228;53.222;7.446;2022-07-30T08:37:20;8.03;;;6.10;;
36185;SDS011;22228;53.222;7.446;2022-07-30T08:39:44;6.97;;;6.27;;
36185;SDS011;22228;53.222;7.446;2022-07-30T08:42:06;7.80;;;6.40;;
36185;SDS011;22228;53.222;7.446;2022-07-30T08:44:28;6.87;;;6.17;;
36185;SDS011;22228;53.222;7.446;2022-07-30T08:46:51;7.10;;;6.50;;
36185;SDS011;22228;53.222;7.446;2022-07-30T08:49:21;9.23;;;6.17;;
36185;SDS011;22228;53.222;7.446;2022-07-30T08:51:43;7.97;;;7.20;;
36185;SDS011;22228;53.222;7.446;2022-07-30T08:54:31;8.50;;;6.00;;
36185;SDS011;22228;53.222;7.446;2022-07-30T08:56:54;8.40;;;7.33;;
36185;SDS011;22228;53.222;7.446;2022-07-30T08:59:21;7.13;;;6.53;;
36185;SDS011;22228;53.222;7.446;2022-07-30T09:02:04;7.87;;;5.90;;
36185;SDS011;22228;53.222;7.446;2022-07-30T09:04:44;7.20;;;6.50;;
36185;SDS011;22228;53.222;7.446;2022-07-30T09:07:06;6.07;;;5.50;;
36185;SDS011;22228;53.222;7.446;2022-07-30T09:09:31;7.73;;;6.97;;
36185;SDS011;22228;53.222;7.446;2022-07-30T09:11:55;7.87;;;5.63;;
36185;SDS011;22228;53.222;7.446;2022-07-30T09:14:18;7.13;;;6.10;;
36185;SDS011;22228;53.222;7.446;2022-07-30T09:16:40;5.90;;;5.10;;
36185;SDS011;22228;53.222;7.446;2022-07-30T09:19:11;6.53;;;4.27;;
36185;SDS011;22228;53.222;7.446;2022-07-30T09:21:35;6.30;;;3.70;;
36185;SDS011;22228;53.222;7.446;2022-07-30T09:24:17;7.97;;;5.53;;
36185;SDS011;22228;53.222;7.446;2022-07-30T09:27:03;4.43;;;3.80;;
36185;SDS011;22228;53.222;7.446;2022-07-30T09:29:41;5.90;;;4.67;;
36185;SDS011;22228;53.222;7.446;2022-07-30T09:32:22;5.73;;;3.53;;
36185;SDS011;22228;53.222;7.446;2022-07-30T09:35:10;4.90;;;3.53;;
36185;SDS011;22228;53.222;7.446;2022-07-30T09:37:57;6.97;;;2.73;;
36185;SDS011;22228;53.222;7.446;2022-07-30T09:40:55;6.67;;;2.73;;
36185;SDS011;22228;53.222;7.446;2022-07-30T09:43:44;3.73;;;2.60;;
36185;SDS011;22228;53.222;7.446;2022-07-30T09:46:39;3.00;;;2.20;;
36185;SDS011;22228;53.222;7.446;2022-07-30T09:49:12;5.87;;;2.50;;
36185;SDS011;22228;53.222;7.446;2022-07-30T09:51:36;4.30;;;2.43;;
36185;SDS011;22228;53.222;7.446;2022-07-30T09:54:22;4.87;;;3.77;;
36185;SDS011;22228;53.222;7.446;2022-07-30T09:56:46;4.23;;;2.90;;
36185;SDS011;22228;53.222;7.446;2022-07-30T09:59:27;7.07;;;3.23;;
36185;SDS011;22228;53.222;7.446;2022-07-30T10:01:55;6.67;;;4.80;;
36185;SDS011;22228;53.222;7.446;2022-07-30T10:04:47;8.47;;;4.50;;
36185;SDS011;22228;53.222;7.446;2022-07-30T10:07:16;7.53;;;3.37;;
36185;SDS011;22228;53.222;7.446;2022-07-30T10:09:49;6.20;;;2.63;;
36185;SDS011;22228;53.222;7.446;2022-07-30T10:12:13;2.80;;;2.60;;
36185;SDS011;22228;53.222;7.446;2022-07-30T10:14:42;3.93;;;2.47;;
36185;SDS011;22228;53.222;7.446;2022-07-30T10:17:09;6.40;;;2.57;;
36185;SDS011;22228;53.222;7.446;2022-07-30T10:19:38;5.00;;;2.50;;
36185;SDS011;22228;53.222;7.446;2022-07-30T10:22:20;3.77;;;2.20;;
36185;SDS011;22228;53.222;7.446;2022-07-30T10:25:04;5.27;;;2.50;;
36185;SDS011;22228;53.222;7.446;2022-07-30T10:27:46;4.83;;;2.30;;
36185;SDS011;22228;53.222;7.446;2022-07-30T10:30:23;6.67;;;3.37;;
36185;SDS011;22228;53.222;7.446;2022-07-30T10:32:48;3.97;;;3.57;;
36185;SDS011;22228;53.222;7.446;2022-07-30T10:35:12;8.57;;;5.00;;
36185;SDS011;22228;53.222;7.446;2022-07-30T10:37:55;8.30;;;4.53;;
36185;SDS011;22228;53.222;7.446;2022-07-30T10:40:20;6.73;;;4.63;;
36185;SDS011;22228;53.222;7.446;2022-07-30T10:43:05;11.37;;;4.93;;
36185;SDS011;22228;53.222;7.446;2022-07-30T10:45:54;5.27;;;4.23;;
36185;SDS011;22228;53.222;7.446;2022-07-30T10:48:28;7.17;;;4.63;;
36185;SDS011;22228;53.222;7.446;2022-07-30T10:50:54;11.23;;;5.70;;
36185;SDS011;22228;53.222;7.446;2022-07-30T10:53:34;7.67;;;4.73;;
36185;SDS011;22228;53.222;7.446;2022-07-30T10:56:14;7.00;;;5.50;;
36185;SDS011;22228;53.222;7.446;2022-07-30T10:59:01;7.57;;;5.10;;
36185;SDS011;22228;53.222;7.446;2022-07-30T11:04:26;8.27;;;5.10;;
36185;SDS011;22228;53.222;7.446;2022-07-30T11:06:50;6.13;;;5.07;;
36185;SDS011;22228;53.222;7.446;2022-07-30T11:12:01;8.27;;;4.63;;
36185;SDS011;22228;53.222;7.446;2022-07-30T11:14:54;6.87;;;4.77;;
36185;SDS011;22228;53.222;7.446;2022-07-30T11:20:23;5.03;;;4.57;;
36185;SDS011;22228;53.222;7.446;2022-07-30T11:22:45;6.67;;;4.53;;
36185;SDS011;22228;53.222;7.446;2022-07-30T11:30:55;7.50;;;4.10;;
36185;SDS011;22228;53.222;7.446;2022-07-30T11:33:20;8.17;;;3.43;;
36185;SDS011;22228;53.222;7.446;2022-07-30T11:36:10;6.27;;;3.93;;
36185;SDS011;22228;53.222;7.446;2022-07-30T11:41:14;7.83;;;4.37;;
36185;SDS011;22228;53.222;7.446;2022-07-30T11:43:36;7.60;;;4.03;;
36185;SDS011;22228;53.222;7.446;2022-07-30T11:46:03;6.40;;;4.00;;
36185;SDS011;22228;53.222;7.446;2022-07-30T11:48:30;5.07;;;3.43;;
36185;SDS011;22228;53.222;7.446;2022-07-30T11:50:53;3.57;;;3.27;;
36185;SDS011;22228;53.222;7.446;2022-07-30T11:53:23;7.50;;;3.97;;
36185;SDS011;22228;53.222;7.446;2022-07-30T11:55:49;6.37;;;3.93;;
36185;SDS011;22228;53.222;7.446;2022-07-30T11:58:23;6.87;;;4.33;;
36185;SDS011;22228;53.222;7.446;2022-07-30T12:00:48;7.37;;;4.43;;
36185;SDS011;22228;53.222;7.446;2022-07-30T12:03:10;3.60;;;3.30;;
36185;SDS011;22228;53.222;7.446;2022-07-30T12:05:34;5.67;;;3.50;;
36185;SDS011;22228;53.222;7.446;2022-07-30T12:07:56;4.93;;;3.53;;
36185;SDS011;22228;53.222;7.446;2022-07-30T12:10:20;4.63;;;3.80;;
36185;SDS011;22228;53.222;7.446;2022-07-30T12:12:46;6.53;;;3.10;;
36185;SDS011;22228;53.222;7.446;2022-07-30T12:15:09;5.70;;;3.00;;
36185;SDS011;22228;53.222;7.446;2022-07-30T12:17:39;9.30;;;4.03;;
36185;SDS011;22228;53.222;7.446;2022-07-30T12:20:12;4.10;;;3.70;;
36185;SDS011;22228;53.222;7.446;2022-07-30T12:22:36;4.63;;;3.30;;
36185;SDS011;22228;53.222;7.446;2022-07-30T12:24:59;6.00;;;3.07;;
36185;SDS011;22228;53.222;7.446;2022-07-30T12:27:28;4.33;;;2.90;;
36185;SDS011;22228;53.222;7.446;2022-07-30T12:29:51;3.37;;;2.23;;
36185;SDS011;22228;53.222;7.446;2022-07-30T12:32:13;6.73;;;3.03;;
36185;SDS011;22228;53.222;7.446;2022-07-30T12:34:37;7.07;;;2.53;;
36185;SDS011;22228;53.222;7.446;2022-07-30T12:37:05;5.50;;;2.83;;
36185;SDS011;22228;53.222;7.446;2022-07-30T12:39:28;4.17;;;2.20;;
36185;SDS011;22228;53.222;7.446;2022-07-30T12:41:51;6.10;;;2.40;;
36185;SDS011;22228;53.222;7.446;2022-07-30T12:44:33;6.13;;;2.87;;
36185;SDS011;22228;53.222;7.446;2022-07-30T12:46:56;6.53;;;3.23;;
36185;SDS011;22228;53.222;7.446;2022-07-30T12:49:19;7.40;;;2.90;;
36185;SDS011;22228;53.222;7.446;2022-07-30T12:52:08;4.30;;;2.73;;
36185;SDS011;22228;53.222;7.446;2022-07-30T12:54:38;6.37;;;3.23;;
36185;SDS011;22228;53.222;7.446;2022-07-30T12:57:00;3.77;;;2.53;;
36185;SDS011;22228;53.222;7.446;2022-07-30T12:59:25;6.47;;;2.90;;
36185;SDS011;22228;53.222;7.446;2022-07-30T13:01:50;4.40;;;2.40;;
36185;SDS011;22228;53.222;7.446;2022-07-30T13:04:12;4.87;;;2.97;;
36185;SDS011;22228;53.222;7.446;2022-07-30T13:06:34;4.87;;;2.60;;
36185;SDS011;22228;53.222;7.446;2022-07-30T13:08:57;5.13;;;2.90;;
36185;SDS011;22228;53.222;7.446;2022-07-30T13:11:20;7.77;;;3.83;;
36185;SDS011;22228;53.222;7.446;2022-07-30T13:13:44;5.47;;;3.67;;
36185;SDS011;22228;53.222;7.446;2022-07-30T13:16:06;6.57;;;3.97;;
36185;SDS011;22228;53.222;7.446;2022-07-30T13:18:30;5.23;;;3.20;;
36185;SDS011;22228;53.222;7.446;2022-07-30T13:20:53;4.77;;;2.87;;
36185;SDS011;22228;53.222;7.446;2022-07-30T13:23:16;4.63;;;3.90;;
36185;SDS011;22228;53.222;7.446;2022-07-30T13:25:37;9.30;;;3.93;;
36185;SDS011;22228;53.222;7.446;2022-07-30T13:28:00;5.23;;;4.07;;
36185;SDS011;22228;53.222;7.446;2022-07-30T13:30:21;5.40;;;3.30;;
36185;SDS011;22228;53.222;7.446;2022-07-30T13:32:43;6.27;;;3.30;;
36185;SDS011;22228;53.222;7.446;2022-07-30T13:35:07;7.53;;;3.20;;
36185;SDS011;22228;53.222;7.446;2022-07-30T13:37:29;5.90;;;3.40;;
36185;SDS011;22228;53.222;7.446;2022-07-30T13:39:57;8.10;;;2.87;;
36185;SDS011;22228;53.222;7.446;2022-07-30T13:42:20;5.03;;;2.60;;
36185;SDS011;22228;53.222;7.446;2022-07-30T13:44:42;5.67;;;2.87;;
36185;SDS011;22228;53.222;7.446;2022-07-30T13:47:06;5.43;;;3.53;;
36185;SDS011;22228;53.222;7.446;2022-07-30T13:49:28;4.20;;;2.77;;
36185;SDS011;22228;53.222;7.446;2022-07-30T13:51:52;6.07;;;2.40;;
36185;SDS011;22228;53.222;7.446;2022-07-30T13:54:14;6.33;;;2.90;;
36185;SDS011;22228;53.222;7.446;2022-07-30T13:56:36;8.07;;;2.63;;
36185;SDS011;22228;53.222;7.446;2022-07-30T13:59:01;4.10;;;2.50;;
36185;SDS011;22228;53.222;7.446;2022-07-30T14:01:24;6.73;;;2.80;;
36185;SDS011;22228;53.222;7.446;2022-07-30T14:03:46;6.30;;;2.67;;
36185;SDS011;22228;53.222;7.446;2022-07-30T14:06:10;4.30;;;2.97;;
36185;SDS011;22228;53.222;7.446;2022-07-30T14:08:33;6.50;;;2.83;;
36185;SDS011;22228;53.222;7.446;2022-07-30T14:10:56;5.50;;;2.53;;
36185;SDS011;22228;53.222;7.446;2022-07-30T14:13:18;6.37;;;3.53;;
36185;SDS011;22228;53.222;7.446;2022-07-30T14:15:41;7.90;;;3.20;;
36185;SDS011;22228;53.222;7.446;2022-07-30T14:18:03;4.50;;;2.67;;
36185;SDS011;22228;53.222;7.446;2022-07-30T14:20:25;4.97;;;2.63;;
36185;SDS011;22228;53.222;7.446;2022-07-30T14:22:48;9.23;;;3.03;;
36185;SDS011;22228;53.222;7.446;2022-07-30T14:25:12;4.37;;;2.40;;
36185;SDS011;22228;53.222;7.446;2022-07-30T14:27:34;4.30;;;2.80;;
36185;SDS011;22228;53.222;7.446;2022-07-30T14:29:56;4.70;;;2.80;;
36185;SDS011;22228;53.222;7.446;2022-07-30T14:32:18;4.33;;;2.70;;
36185;SDS011;22228;53.222;7.446;2022-07-30T14:34:42;5.33;;;2.40;;
36185;SDS011;22228;53.222;7.446;2022-07-30T14:37:09;6.83;;;2.60;;
36185;SDS011;22228;53.222;7.446;2022-07-30T14:39:34;4.67;;;2.10;;
36185;SDS011;22228;53.222;7.446;2022-07-30T14:41:57;3.00;;;1.97;;
36185;SDS011;22228;53.222;7.446;2022-07-30T14:44:18;4.53;;;2.20;;
36185;SDS011;22228;53.222;7.446;2022-07-30T14:46:40;3.37;;;2.20;;
36185;SDS011;22228;53.222;7.446;2022-07-30T14:49:12;3.53;;;2.10;;
36185;SDS011;22228;53.222;7.446;2022-07-30T14:51:35;4.47;;;2.37;;
36185;SDS011;22228;53.222;7.446;2022-07-30T14:53:58;5.43;;;2.20;;
36185;SDS011;22228;53.222;7.446;2022-07-30T14:56:20;4.90;;;2.43;;
36185;SDS011;22228;53.222;7.446;2022-07-30T14:58:45;3.80;;;2.80;;
36185;SDS011;22228;53.222;7.446;2022-07-30T15:01:08;3.93;;;2.83;;
36185;SDS011;22228;53.222;7.446;2022-07-30T15:03:36;4.37;;;2.00;;